sensor_id;sensor_type;location;lat;lon;timestamp;temperature;humidity
20459;DHT22;10388;52.314;7.938;2023-01-15T00:01:05;6.60;99.90
20459;DHT22;10388;52.314;7.938;2023-01-15T00:03:35;6.50;99.90
20459;DHT22;10388;52.314;7.938;2023-01-15T00:06:06;6.50;99.90
20459;DHT22;10388;52.314;7.938;2023-01-15T00:08:36;6.50;99.90
20459;DHT22;10388;52.314;7.938;2023-01-15T00:11:07;6.50;99.90
20459;DHT22;10388;52.314;7.938;2023-01-15T00:13:38;6.50;99.90
20459;DHT22;10388;52.314;7.938;2023-01-15T00:16:10;6.50;99.90
20459;DHT22;10388;52.314;7.938;2023-01-15T00:18:41;6.50;99.90
20459;DHT22;10388;52.314;7.938;2023-01-15T00:21:12;6.50;99.90
20459;DHT22;10388;52.314;7.938;2023-01-15T00:23:43;6.50;99.90
20459;DHT22;10388;52.314;7.938;2023-01-15T00:26:33;6.40;99.90
20459;DHT22;10388;52.314;7.938;2023-01-15T00:29:23;6.40;99.90
20459;DHT22;10388;52.314;7.938;2023-01-15T00:34:26;6.40;99.90
20459;DHT22;10388;52.314;7.938;2023-01-15T00:36:58;6.40;99.90
20459;DHT22;10388;52.314;7.938;2023-01-15T00:39:29;6.40;99.90
20459;DHT22;10388;52.314;7.938;2023-01-15T00:41:59;6.40;99.90
20459;DHT22;10388;52.314;7.938;2023-01-15T00:44:30;6.40;99.90
20459;DHT22;10388;52.314;7.938;2023-01-15T00:47:02;6.40;99.90
20459;DHT22;10388;52.314;7.938;2023-01-15T00:49:33;6.50;99.90
20459;DHT22;10388;52.314;7.938;2023-01-15T00:52:04;6.50;99.90
20459;DHT22;10388;52.314;7.938;2023-01-15T00:54:34;6.40;99.90
20459;DHT22;10388;52.314;7.938;2023-01-15T00:57:05;6.40;99.90
20459;DHT22;10388;52.314;7.938;2023-01-15T00:59:35;6.40;99.90
20459;DHT22;10388;52.314;7.938;2023-01-15T04:30:30;5.70;99.90
20459;DHT22;10388;52.314;7.938;2023-01-15T04:33:01;5.70;99.90
20459;DHT22;10388;52.314;7.938;2023-01-15T04:35:32;5.70;99.90
20459;DHT22;10388;52.314;7.938;2023-01-15T04:38:04;5.70;99.90
20459;DHT22;10388;52.314;7.938;2023-01-15T04:40:34;5.70;99.90
20459;DHT22;10388;52.314;7.938;2023-01-15T04:43:24;5.70;99.90
20459;DHT22;10388;52.314;7.938;2023-01-15T04:46:13;5.70;99.90
20459;DHT22;10388;52.314;7.938;2023-01-15T04:48:43;5.70;99.90
20459;DHT22;10388;52.314;7.938;2023-01-15T04:51:14;5.80;99.90
20459;DHT22;10388;52.314;7.938;2023-01-15T04:53:44;5.70;99.90
20459;DHT22;10388;52.314;7.938;2023-01-15T04:56:15;5.70;99.90
20459;DHT22;10388;52.314;7.938;2023-01-15T04:58:46;5.70;99.90
20459;DHT22;10388;52.314;7.938;2023-01-15T05:01:16;5.70;99.90
20459;DHT22;10388;52.314;7.938;2023-01-15T05:03:48;5.60;99.90
20459;DHT22;10388;52.314;7.938;2023-01-15T05:06:18;5.60;99.90
20459;DHT22;10388;52.314;7.938;2023-01-15T05:08:49;5.60;99.90
20459;DHT22;10388;52.314;7.938;2023-01-15T05:11:20;5.60;99.90
20459;DHT22;10388;52.314;7.938;2023-01-15T05:13:50;5.50;99.90
20459;DHT22;10388;52.314;7.938;2023-01-15T05:16:23;5.50;99.90
20459;DHT22;10388;52.314;7.938;2023-01-15T05:18:59;5.50;99.90
20459;DHT22;10388;52.314;7.938;2023-01-15T05:21:34;5.40;99.90
20459;DHT22;10388;52.314;7.938;2023-01-15T05:24:06;5.50;99.90
20459;DHT22;10388;52.314;7.938;2023-01-15T05:26:38;5.50;99.90
20459;DHT22;10388;52.314;7.938;2023-01-15T05:29:10;5.50;99.90
20459;DHT22;10388;52.314;7.938;2023-01-15T05:31:41;5.40;99.90
20459;DHT22;10388;52.314;7.938;2023-01-15T05:34:14;5.40;99.90
20459;DHT22;10388;52.314;7.938;2023-01-15T05:36:44;5.40;99.90
20459;DHT22;10388;52.314;7.938;2023-01-15T05:39:15;5.40;99.90
20459;DHT22;10388;52.314;7.938;2023-01-15T05:41:45;5.40;99.90
20459;DHT22;10388;52.314;7.938;2023-01-15T05:44:24;5.30;99.90
20459;DHT22;10388;52.314;7.938;2023-01-15T05:46:58;5.40;99.90
20459;DHT22;10388;52.314;7.938;2023-01-15T05:49:29;5.40;99.90
20459;DHT22;10388;52.314;7.938;2023-01-15T05:52:01;5.40;99.90
20459;DHT22;10388;52.314;7.938;2023-01-15T05:54:33;5.40;99.90
20459;DHT22;10388;52.314;7.938;2023-01-15T05:57:04;5.40;99.90
20459;DHT22;10388;52.314;7.938;2023-01-15T05:59:34;5.40;99.90
20459;DHT22;10388;52.314;7.938;2023-01-15T06:02:05;5.40;99.90
20459;DHT22;10388;52.314;7.938;2023-01-15T06:04:35;5.40;99.90
20459;DHT22;10388;52.314;7.938;2023-01-15T06:07:06;5.40;99.90
20459;DHT22;10388;52.314;7.938;2023-01-15T06:09:36;5.40;99.90
20459;DHT22;10388;52.314;7.938;2023-01-15T06:12:07;5.50;99.90
20459;DHT22;10388;52.314;7.938;2023-01-15T06:14:37;5.40;99.90
20459;DHT22;10388;52.314;7.938;2023-01-15T06:17:08;5.40;99.90
20459;DHT22;10388;52.314;7.938;2023-01-15T06:19:39;5.40;99.90
20459;DHT22;10388;52.314;7.938;2023-01-15T06:22:09;5.40;99.90
20459;DHT22;10388;52.314;7.938;2023-01-15T06:24:40;5.40;99.90
20459;DHT22;10388;52.314;7.938;2023-01-15T06:27:10;5.40;99.90
20459;DHT22;10388;52.314;7.938;2023-01-15T06:29:41;5.40;99.90
20459;DHT22;10388;52.314;7.938;2023-01-15T06:32:11;5.50;99.90
20459;DHT22;10388;52.314;7.938;2023-01-15T06:34:42;5.40;99.90
20459;DHT22;10388;52.314;7.938;2023-01-15T06:37:13;5.40;99.90
20459;DHT22;10388;52.314;7.938;2023-01-15T06:39:44;5.40;99.90
20459;DHT22;10388;52.314;7.938;2023-01-15T06:42:14;5.40;99.90
20459;DHT22;10388;52.314;7.938;2023-01-15T06:45:04;5.40;99.90
20459;DHT22;10388;52.314;7.938;2023-01-15T06:47:53;5.40;99.90
20459;DHT22;10388;52.314;7.938;2023-01-15T06:50:24;5.40;99.90
20459;DHT22;10388;52.314;7.938;2023-01-15T06:52:55;5.50;99.90
20459;DHT22;10388;52.314;7.938;2023-01-15T06:55:25;5.40;99.90
20459;DHT22;10388;52.314;7.938;2023-01-15T06:57:56;5.50;99.90
20459;DHT22;10388;52.314;7.938;2023-01-15T07:00:26;5.50;99.90
20459;DHT22;10388;52.314;7.938;2023-01-15T07:03:00;5.50;99.90
20459;DHT22;10388;52.314;7.938;2023-01-15T07:05:31;5.50;99.90
20459;DHT22;10388;52.314;7.938;2023-01-15T07:08:01;5.50;99.90
20459;DHT22;10388;52.314;7.938;2023-01-15T07:10:35;5.40;99.90
20459;DHT22;10388;52.314;7.938;2023-01-15T07:13:07;5.40;99.90
20459;DHT22;10388;52.314;7.938;2023-01-15T07:15:38;5.50;99.90
20459;DHT22;10388;52.314;7.938;2023-01-15T07:18:09;5.50;99.90
20459;DHT22;10388;52.314;7.938;2023-01-15T07:20:39;5.50;99.90
20459;DHT22;10388;52.314;7.938;2023-01-15T07:23:10;5.40;99.90
20459;DHT22;10388;52.314;7.938;2023-01-15T07:25:40;5.50;99.90
20459;DHT22;10388;52.314;7.938;2023-01-15T07:28:11;5.50;99.90
20459;DHT22;10388;52.314;7.938;2023-01-15T07:30:41;5.50;99.90
20459;DHT22;10388;52.314;7.938;2023-01-15T07:33:12;5.60;99.90
20459;DHT22;10388;52.314;7.938;2023-01-15T07:35:42;5.50;99.90
20459;DHT22;10388;52.314;7.938;2023-01-15T07:38:13;5.50;99.90
20459;DHT22;10388;52.314;7.938;2023-01-15T07:40:43;5.50;99.90
20459;DHT22;10388;52.314;7.938;2023-01-15T07:43:14;5.50;99.90
20459;DHT22;10388;52.314;7.938;2023-01-15T07:46:03;5.50;99.90
20459;DHT22;10388;52.314;7.938;2023-01-15T07:48:52;5.50;99.90
20459;DHT22;10388;52.314;7.938;2023-01-15T07:51:41;5.60;99.90
20459;DHT22;10388;52.314;7.938;2023-01-15T07:54:12;5.60;99.90
20459;DHT22;10388;52.314;7.938;2023-01-15T07:56:42;5.60;99.90
20459;DHT22;10388;52.314;7.938;2023-01-15T07:59:13;5.50;99.90
20459;DHT22;10388;52.314;7.938;2023-01-15T08:01:44;5.50;99.90
20459;DHT22;10388;52.314;7.938;2023-01-15T08:04:14;5.50;99.90
20459;DHT22;10388;52.314;7.938;2023-01-15T08:06:45;5.50;99.90
20459;DHT22;10388;52.314;7.938;2023-01-15T08:09:15;5.50;99.90
20459;DHT22;10388;52.314;7.938;2023-01-15T08:11:46;5.50;99.90
20459;DHT22;10388;52.314;7.938;2023-01-15T08:14:35;5.50;99.90
20459;DHT22;10388;52.314;7.938;2023-01-15T08:17:24;5.50;99.90
20459;DHT22;10388;52.314;7.938;2023-01-15T08:19:54;5.50;99.90
20459;DHT22;10388;52.314;7.938;2023-01-15T08:22:25;5.50;99.90
20459;DHT22;10388;52.314;7.938;2023-01-15T08:24:56;5.50;99.90
20459;DHT22;10388;52.314;7.938;2023-01-15T08:27:27;5.50;99.90
20459;DHT22;10388;52.314;7.938;2023-01-15T08:29:58;5.50;99.90
20459;DHT22;10388;52.314;7.938;2023-01-15T08:32:28;5.50;99.90
20459;DHT22;10388;52.314;7.938;2023-01-15T08:34:59;5.50;99.90
20459;DHT22;10388;52.314;7.938;2023-01-15T08:37:30;5.50;99.90
20459;DHT22;10388;52.314;7.938;2023-01-15T08:40:00;5.50;99.90
20459;DHT22;10388;52.314;7.938;2023-01-15T08:42:31;5.50;99.90
20459;DHT22;10388;52.314;7.938;2023-01-15T08:45:01;5.50;99.90
20459;DHT22;10388;52.314;7.938;2023-01-15T08:47:32;5.50;99.90
20459;DHT22;10388;52.314;7.938;2023-01-15T08:50:04;5.50;99.90
20459;DHT22;10388;52.314;7.938;2023-01-15T08:52:36;5.50;99.90
20459;DHT22;10388;52.314;7.938;2023-01-15T08:55:08;5.50;99.90
20459;DHT22;10388;52.314;7.938;2023-01-15T08:57:38;5.50;99.90
20459;DHT22;10388;52.314;7.938;2023-01-15T09:00:09;5.50;99.90
20459;DHT22;10388;52.314;7.938;2023-01-15T09:02:40;5.50;99.90
20459;DHT22;10388;52.314;7.938;2023-01-15T09:05:10;5.60;99.90
20459;DHT22;10388;52.314;7.938;2023-01-15T09:07:41;5.60;99.90
20459;DHT22;10388;52.314;7.938;2023-01-15T09:10:12;5.60;99.90
20459;DHT22;10388;52.314;7.938;2023-01-15T09:12:42;5.60;99.90
20459;DHT22;10388;52.314;7.938;2023-01-15T09:15:13;5.60;99.90
20459;DHT22;10388;52.314;7.938;2023-01-15T09:17:43;5.60;99.90
20459;DHT22;10388;52.314;7.938;2023-01-15T09:20:14;5.60;99.90
20459;DHT22;10388;52.314;7.938;2023-01-15T09:22:44;5.70;99.90
20459;DHT22;10388;52.314;7.938;2023-01-15T09:25:15;5.70;99.90
20459;DHT22;10388;52.314;7.938;2023-01-15T09:27:48;5.80;99.90
20459;DHT22;10388;52.314;7.938;2023-01-15T09:30:19;5.80;99.90
20459;DHT22;10388;52.314;7.938;2023-01-15T09:32:50;5.80;99.90
20459;DHT22;10388;52.314;7.938;2023-01-15T09:35:21;5.90;99.90
20459;DHT22;10388;52.314;7.938;2023-01-15T09:37:54;5.90;99.90
20459;DHT22;10388;52.314;7.938;2023-01-15T09:46:18;5.90;99.90
20459;DHT22;10388;52.314;7.938;2023-01-15T09:49:19;6.00;99.90
20459;DHT22;10388;52.314;7.938;2023-01-15T09:54:42;6.00;99.90
20459;DHT22;10388;52.314;7.938;2023-01-15T09:57:15;6.00;99.90
20459;DHT22;10388;52.314;7.938;2023-01-15T09:59:48;6.00;99.90
20459;DHT22;10388;52.314;7.938;2023-01-15T10:02:31;6.10;99.90
20459;DHT22;10388;52.314;7.938;2023-01-15T10:05:10;6.10;99.90
20459;DHT22;10388;52.314;7.938;2023-01-15T10:08:02;6.20;99.90
20459;DHT22;10388;52.314;7.938;2023-01-15T10:11:37;6.10;99.90
20459;DHT22;10388;52.314;7.938;2023-01-15T10:14:36;6.10;99.90
20459;DHT22;10388;52.314;7.938;2023-01-15T10:17:28;6.10;99.90
20459;DHT22;10388;52.314;7.938;2023-01-15T10:20:00;6.10;99.90
20459;DHT22;10388;52.314;7.938;2023-01-15T10:22:42;6.20;99.90
20459;DHT22;10388;52.314;7.938;2023-01-15T10:25:16;6.20;99.90
20459;DHT22;10388;52.314;7.938;2023-01-15T10:27:50;6.20;99.90
20459;DHT22;10388;52.314;7.938;2023-01-15T10:30:42;6.20;99.90
20459;DHT22;10388;52.314;7.938;2023-01-15T10:36:22;6.20;99.90
20459;DHT22;10388;52.314;7.938;2023-01-15T10:42:15;6.20;99.90
20459;DHT22;10388;52.314;7.938;2023-01-15T10:45:18;6.30;99.90
20459;DHT22;10388;52.314;7.938;2023-01-15T10:47:55;6.40;99.90
20459;DHT22;10388;52.314;7.938;2023-01-15T10:50:27;6.40;99.90
20459;DHT22;10388;52.314;7.938;2023-01-15T10:53:15;6.60;99.90
20459;DHT22;10388;52.314;7.938;2023-01-15T10:55:50;6.60;99.90
20459;DHT22;10388;52.314;7.938;2023-01-15T11:01:19;6.50;99.90
20459;DHT22;10388;52.314;7.938;2023-01-15T11:03:53;6.40;99.90
20459;DHT22;10388;52.314;7.938;2023-01-15T11:06:23;6.50;99.90
20459;DHT22;10388;52.314;7.938;2023-01-15T11:08:56;6.50;99.90
20459;DHT22;10388;52.314;7.938;2023-01-15T11:11:35;6.50;99.90
20459;DHT22;10388;52.314;7.938;2023-01-15T11:14:38;6.50;99.90
20459;DHT22;10388;52.314;7.938;2023-01-15T11:17:34;6.50;99.90
20459;DHT22;10388;52.314;7.938;2023-01-15T11:20:57;6.50;99.90
20459;DHT22;10388;52.314;7.938;2023-01-15T11:23:34;6.60;99.90
20459;DHT22;10388;52.314;7.938;2023-01-15T11:26:05;6.60;99.90
20459;DHT22;10388;52.314;7.938;2023-01-15T11:28:38;6.60;99.90
20459;DHT22;10388;52.314;7.938;2023-01-15T11:31:16;6.70;99.90
20459;DHT22;10388;52.314;7.938;2023-01-15T11:33:59;6.70;99.90
20459;DHT22;10388;52.314;7.938;2023-01-15T11:36:30;6.60;99.90
20459;DHT22;10388;52.314;7.938;2023-01-15T11:39:01;6.60;99.90
20459;DHT22;10388;52.314;7.938;2023-01-15T11:41:33;6.60;99.90
20459;DHT22;10388;52.314;7.938;2023-01-15T11:44:22;6.60;99.90
20459;DHT22;10388;52.314;7.938;2023-01-15T11:47:13;6.70;99.90
20459;DHT22;10388;52.314;7.938;2023-01-15T11:50:18;6.70;99.90
20459;DHT22;10388;52.314;7.938;2023-01-15T11:53:14;6.70;99.90
20459;DHT22;10388;52.314;7.938;2023-01-15T11:55:54;6.60;99.90
20459;DHT22;10388;52.314;7.938;2023-01-15T11:58:38;6.60;99.90
20459;DHT22;10388;52.314;7.938;2023-01-15T12:01:12;6.60;99.90
20459;DHT22;10388;52.314;7.938;2023-01-15T12:03:45;6.60;99.90
20459;DHT22;10388;52.314;7.938;2023-01-15T12:06:18;6.60;99.90
20459;DHT22;10388;52.314;7.938;2023-01-15T12:12:01;6.50;99.90
20459;DHT22;10388;52.314;7.938;2023-01-15T12:15:14;6.50;99.90
20459;DHT22;10388;52.314;7.938;2023-01-15T12:23:42;6.80;99.90
20459;DHT22;10388;52.314;7.938;2023-01-15T12:26:32;6.90;99.90
20459;DHT22;10388;52.314;7.938;2023-01-15T12:29:21;7.00;99.90
20459;DHT22;10388;52.314;7.938;2023-01-15T12:32:09;7.20;99.90
20459;DHT22;10388;52.314;7.938;2023-01-15T12:34:42;7.40;99.90
20459;DHT22;10388;52.314;7.938;2023-01-15T12:37:20;7.50;99.90
20459;DHT22;10388;52.314;7.938;2023-01-15T12:40:24;7.50;99.90
20459;DHT22;10388;52.314;7.938;2023-01-15T12:42:57;7.40;99.90
20459;DHT22;10388;52.314;7.938;2023-01-15T12:45:50;7.30;99.90
20459;DHT22;10388;52.314;7.938;2023-01-15T12:48:31;7.20;99.90
20459;DHT22;10388;52.314;7.938;2023-01-15T12:51:04;7.10;99.90
20459;DHT22;10388;52.314;7.938;2023-01-15T12:53:40;7.00;99.90
20459;DHT22;10388;52.314;7.938;2023-01-15T12:56:36;7.00;99.90
20459;DHT22;10388;52.314;7.938;2023-01-15T12:59:19;7.00;99.90
20459;DHT22;10388;52.314;7.938;2023-01-15T13:02:08;7.00;99.90
20459;DHT22;10388;52.314;7.938;2023-01-15T13:04:47;6.90;99.90
20459;DHT22;10388;52.314;7.938;2023-01-15T13:07:38;6.90;99.90
20459;DHT22;10388;52.314;7.938;2023-01-15T13:10:30;6.80;99.90
20459;DHT22;10388;52.314;7.938;2023-01-15T13:13:15;6.80;99.90
20459;DHT22;10388;52.314;7.938;2023-01-15T13:16:00;6.80;99.90
20459;DHT22;10388;52.314;7.938;2023-01-15T13:18:48;6.90;99.90
20459;DHT22;10388;52.314;7.938;2023-01-15T13:21:23;6.90;99.90
20459;DHT22;10388;52.314;7.938;2023-01-15T13:33:35;6.70;99.90
20459;DHT22;10388;52.314;7.938;2023-01-15T13:36:13;6.50;99.90
20459;DHT22;10388;52.314;7.938;2023-01-15T13:38:49;6.50;99.90
20459;DHT22;10388;52.314;7.938;2023-01-15T13:41:24;6.50;99.90
20459;DHT22;10388;52.314;7.938;2023-01-15T13:44:23;6.50;99.90
20459;DHT22;10388;52.314;7.938;2023-01-15T13:47:04;6.50;99.90
20459;DHT22;10388;52.314;7.938;2023-01-15T13:49:43;6.40;99.90
20459;DHT22;10388;52.314;7.938;2023-01-15T13:52:25;6.30;99.90
20459;DHT22;10388;52.314;7.938;2023-01-15T13:55:28;6.30;99.90
20459;DHT22;10388;52.314;7.938;2023-01-15T13:58:00;6.30;99.90
20459;DHT22;10388;52.314;7.938;2023-01-15T14:00:33;6.30;99.90
20459;DHT22;10388;52.314;7.938;2023-01-15T14:03:31;6.40;99.90
20459;DHT22;10388;52.314;7.938;2023-01-15T14:06:07;6.40;99.90
20459;DHT22;10388;52.314;7.938;2023-01-15T14:08:43;6.40;99.90
20459;DHT22;10388;52.314;7.938;2023-01-15T14:11:34;6.40;99.90
20459;DHT22;10388;52.314;7.938;2023-01-15T14:14:38;6.40;99.90
20459;DHT22;10388;52.314;7.938;2023-01-15T14:17:31;6.40;99.90
20459;DHT22;10388;52.314;7.938;2023-01-15T14:20:36;6.40;99.90
20459;DHT22;10388;52.314;7.938;2023-01-15T14:25:57;6.30;99.90
20459;DHT22;10388;52.314;7.938;2023-01-15T14:31:41;6.30;99.90
20459;DHT22;10388;52.314;7.938;2023-01-15T14:34:35;6.30;99.90
20459;DHT22;10388;52.314;7.938;2023-01-15T14:39:48;6.30;99.90
20459;DHT22;10388;52.314;7.938;2023-01-15T14:52:58;6.30;99.90
20459;DHT22;10388;52.314;7.938;2023-01-15T14:55:31;6.30;99.90
20459;DHT22;10388;52.314;7.938;2023-01-15T14:58:05;6.20;99.90
20459;DHT22;10388;52.314;7.938;2023-01-15T15:00:44;6.20;99.90
20459;DHT22;10388;52.314;7.938;2023-01-15T15:03:20;6.20;99.90
20459;DHT22;10388;52.314;7.938;2023-01-15T15:05:51;6.20;99.90
20459;DHT22;10388;52.314;7.938;2023-01-15T15:08:28;6.20;99.90
20459;DHT22;10388;52.314;7.938;2023-01-15T15:11:01;6.10;99.90
20459;DHT22;10388;52.314;7.938;2023-01-15T15:13:56;6.00;99.90
20459;DHT22;10388;52.314;7.938;2023-01-15T15:16:28;6.10;99.90
20459;DHT22;10388;52.314;7.938;2023-01-15T15:19:19;6.00;99.90
20459;DHT22;10388;52.314;7.938;2023-01-15T15:21:52;6.00;99.90
20459;DHT22;10388;52.314;7.938;2023-01-15T15:24:35;6.00;99.90
20459;DHT22;10388;52.314;7.938;2023-01-15T15:27:15;6.00;99.90
20459;DHT22;10388;52.314;7.938;2023-01-15T15:29:47;6.00;99.90
20459;DHT22;10388;52.314;7.938;2023-01-15T15:32:22;6.10;99.90
20459;DHT22;10388;52.314;7.938;2023-01-15T15:34:54;6.00;99.90
20459;DHT22;10388;52.314;7.938;2023-01-15T15:37:27;6.10;99.90
20459;DHT22;10388;52.314;7.938;2023-01-15T15:40:03;6.10;99.90
20459;DHT22;10388;52.314;7.938;2023-01-15T15:42:41;6.10;99.90
20459;DHT22;10388;52.314;7.938;2023-01-15T15:45:33;6.00;99.90
20459;DHT22;10388;52.314;7.938;2023-01-15T15:48:30;6.00;99.90
20459;DHT22;10388;52.314;7.938;2023-01-15T15:54:03;5.90;99.90
20459;DHT22;10388;52.314;7.938;2023-01-15T15:56:34;5.90;99.90
20459;DHT22;10388;52.314;7.938;2023-01-15T15:59:05;5.90;99.90
20459;DHT22;10388;52.314;7.938;2023-01-15T16:01:37;5.80;99.90
20459;DHT22;10388;52.314;7.938;2023-01-15T16:04:14;5.80;99.90
20459;DHT22;10388;52.314;7.938;2023-01-15T16:06:46;5.80;99.90
20459;DHT22;10388;52.314;7.938;2023-01-15T16:09:22;5.70;99.90
20459;DHT22;10388;52.314;7.938;2023-01-15T16:11:53;5.70;99.90
20459;DHT22;10388;52.314;7.938;2023-01-15T16:14:32;5.70;99.90
20459;DHT22;10388;52.314;7.938;2023-01-15T16:17:04;5.70;99.90
20459;DHT22;10388;52.314;7.938;2023-01-15T16:19:35;5.70;99.90
20459;DHT22;10388;52.314;7.938;2023-01-15T16:22:06;5.70;99.90
20459;DHT22;10388;52.314;7.938;2023-01-15T16:24:38;5.70;99.90
20459;DHT22;10388;52.314;7.938;2023-01-15T16:27:13;5.70;99.90
20459;DHT22;10388;52.314;7.938;2023-01-15T16:29:51;5.70;99.90
20459;DHT22;10388;52.314;7.938;2023-01-15T16:32:26;5.70;99.90
20459;DHT22;10388;52.314;7.938;2023-01-15T16:35:18;5.70;99.90
20459;DHT22;10388;52.314;7.938;2023-01-15T16:37:52;5.70;99.90
20459;DHT22;10388;52.314;7.938;2023-01-15T16:40:33;5.70;99.90
20459;DHT22;10388;52.314;7.938;2023-01-15T16:43:12;5.70;99.90
20459;DHT22;10388;52.314;7.938;2023-01-15T16:46:08;5.60;99.90
20459;DHT22;10388;52.314;7.938;2023-01-15T16:48:44;5.70;99.90
20459;DHT22;10388;52.314;7.938;2023-01-15T16:51:33;5.60;99.90
20459;DHT22;10388;52.314;7.938;2023-01-15T16:54:05;5.60;99.90
20459;DHT22;10388;52.314;7.938;2023-01-15T17:02:16;5.60;99.90
20459;DHT22;10388;52.314;7.938;2023-01-15T17:04:54;5.50;99.90
20459;DHT22;10388;52.314;7.938;2023-01-15T17:07:33;5.50;99.90
20459;DHT22;10388;52.314;7.938;2023-01-15T17:10:15;5.50;99.90
20459;DHT22;10388;52.314;7.938;2023-01-15T17:12:47;5.50;99.90
20459;DHT22;10388;52.314;7.938;2023-01-15T17:17:52;5.40;99.90
20459;DHT22;10388;52.314;7.938;2023-01-15T17:20:23;5.40;99.90
20459;DHT22;10388;52.314;7.938;2023-01-15T17:22:57;5.40;99.90
20459;DHT22;10388;52.314;7.938;2023-01-15T17:25:32;5.40;99.90
20459;DHT22;10388;52.314;7.938;2023-01-15T17:28:04;5.40;99.90
20459;DHT22;10388;52.314;7.938;2023-01-15T17:30:34;5.40;99.90
20459;DHT22;10388;52.314;7.938;2023-01-15T17:33:06;5.30;99.90
20459;DHT22;10388;52.314;7.938;2023-01-15T17:35:38;5.30;99.90
20459;DHT22;10388;52.314;7.938;2023-01-15T17:38:10;5.20;99.90
20459;DHT22;10388;52.314;7.938;2023-01-15T17:40:44;5.30;99.90
20459;DHT22;10388;52.314;7.938;2023-01-15T17:43:15;5.30;99.90
20459;DHT22;10388;52.314;7.938;2023-01-15T17:45:45;5.30;99.90
20459;DHT22;10388;52.314;7.938;2023-01-15T17:48:16;5.30;99.90
20459;DHT22;10388;52.314;7.938;2023-01-15T17:50:47;5.30;99.90
20459;DHT22;10388;52.314;7.938;2023-01-15T17:53:18;5.20;99.90
20459;DHT22;10388;52.314;7.938;2023-01-15T17:55:48;5.20;99.90
20459;DHT22;10388;52.314;7.938;2023-01-15T17:58:37;5.20;99.90
20459;DHT22;10388;52.314;7.938;2023-01-15T18:01:28;5.20;99.90
20459;DHT22;10388;52.314;7.938;2023-01-15T18:04:26;5.10;99.90
20459;DHT22;10388;52.314;7.938;2023-01-15T18:07:18;5.10;99.90
20459;DHT22;10388;52.314;7.938;2023-01-15T18:09:49;5.20;99.90
20459;DHT22;10388;52.314;7.938;2023-01-15T18:12:22;5.20;99.90
20459;DHT22;10388;52.314;7.938;2023-01-15T18:14:53;5.20;99.90
20459;DHT22;10388;52.314;7.938;2023-01-15T18:17:23;5.20;99.90
20459;DHT22;10388;52.314;7.938;2023-01-15T18:19:54;5.20;99.90
20459;DHT22;10388;52.314;7.938;2023-01-15T18:22:24;5.30;99.90
20459;DHT22;10388;52.314;7.938;2023-01-15T18:24:55;5.30;99.90
20459;DHT22;10388;52.314;7.938;2023-01-15T18:27:25;5.30;99.90
20459;DHT22;10388;52.314;7.938;2023-01-15T18:29:59;5.30;99.90
20459;DHT22;10388;52.314;7.938;2023-01-15T18:32:29;5.30;99.90
20459;DHT22;10388;52.314;7.938;2023-01-15T18:35:00;5.20;99.90
20459;DHT22;10388;52.314;7.938;2023-01-15T18:37:32;5.20;99.90
20459;DHT22;10388;52.314;7.938;2023-01-15T18:40:03;5.10;99.90
20459;DHT22;10388;52.314;7.938;2023-01-15T18:42:34;5.10;99.90
20459;DHT22;10388;52.314;7.938;2023-01-15T18:45:23;5.10;99.90
20459;DHT22;10388;52.314;7.938;2023-01-15T18:48:12;5.20;99.90
20459;DHT22;10388;52.314;7.938;2023-01-15T18:50:43;5.20;99.90
20459;DHT22;10388;52.314;7.938;2023-01-15T18:53:14;5.20;99.90
20459;DHT22;10388;52.314;7.938;2023-01-15T18:55:44;5.10;99.90
20459;DHT22;10388;52.314;7.938;2023-01-15T18:58:15;5.20;99.90
20459;DHT22;10388;52.314;7.938;2023-01-15T19:00:46;5.10;99.90
20459;DHT22;10388;52.314;7.938;2023-01-15T19:03:16;5.10;99.90
20459;DHT22;10388;52.314;7.938;2023-01-15T19:05:47;5.20;99.90
20459;DHT22;10388;52.314;7.938;2023-01-15T19:08:17;5.10;99.90
20459;DHT22;10388;52.314;7.938;2023-01-15T19:10:48;5.20;99.90
20459;DHT22;10388;52.314;7.938;2023-01-15T19:13:19;5.20;99.90
20459;DHT22;10388;52.314;7.938;2023-01-15T19:15:49;5.20;99.90
20459;DHT22;10388;52.314;7.938;2023-01-15T19:18:38;5.20;99.90
20459;DHT22;10388;52.314;7.938;2023-01-15T19:21:12;5.20;99.90
20459;DHT22;10388;52.314;7.938;2023-01-15T19:23:43;5.10;99.90
20459;DHT22;10388;52.314;7.938;2023-01-15T19:26:13;5.10;99.90
20459;DHT22;10388;52.314;7.938;2023-01-15T19:28:44;5.10;99.90
20459;DHT22;10388;52.314;7.938;2023-01-15T19:31:14;5.10;99.90
20459;DHT22;10388;52.314;7.938;2023-01-15T19:34:04;5.10;99.90
20459;DHT22;10388;52.314;7.938;2023-01-15T19:36:37;5.10;99.90
20459;DHT22;10388;52.314;7.938;2023-01-15T19:39:07;5.10;99.90
20459;DHT22;10388;52.314;7.938;2023-01-15T19:41:38;5.10;99.90
20459;DHT22;10388;52.314;7.938;2023-01-15T19:44:27;5.00;99.90
20459;DHT22;10388;52.314;7.938;2023-01-15T19:47:27;5.00;99.90
20459;DHT22;10388;52.314;7.938;2023-01-15T19:50:25;5.10;99.90
20459;DHT22;10388;52.314;7.938;2023-01-15T19:52:56;5.10;99.90
20459;DHT22;10388;52.314;7.938;2023-01-15T19:55:28;5.10;99.90
20459;DHT22;10388;52.314;7.938;2023-01-15T19:58:01;5.10;99.90
20459;DHT22;10388;52.314;7.938;2023-01-15T20:00:34;5.10;99.90
20459;DHT22;10388;52.314;7.938;2023-01-15T20:03:05;5.10;99.90
20459;DHT22;10388;52.314;7.938;2023-01-15T20:05:40;5.10;99.90
20459;DHT22;10388;52.314;7.938;2023-01-15T20:08:11;5.10;99.90
20459;DHT22;10388;52.314;7.938;2023-01-15T20:10:46;5.20;99.90
20459;DHT22;10388;52.314;7.938;2023-01-15T20:13:20;5.20;99.90
20459;DHT22;10388;52.314;7.938;2023-01-15T20:16:14;5.10;99.90
20459;DHT22;10388;52.314;7.938;2023-01-15T20:18:50;5.10;99.90
20459;DHT22;10388;52.314;7.938;2023-01-15T20:21:21;5.20;99.90
20459;DHT22;10388;52.314;7.938;2023-01-15T20:23:51;5.10;99.90
20459;DHT22;10388;52.314;7.938;2023-01-15T20:26:22;5.10;99.90
20459;DHT22;10388;52.314;7.938;2023-01-15T20:28:55;5.10;99.90
20459;DHT22;10388;52.314;7.938;2023-01-15T20:31:26;5.10;99.90
20459;DHT22;10388;52.314;7.938;2023-01-15T20:33:56;5.10;99.90
20459;DHT22;10388;52.314;7.938;2023-01-15T20:36:30;5.10;99.90
20459;DHT22;10388;52.314;7.938;2023-01-15T20:39:03;5.00;99.90
20459;DHT22;10388;52.314;7.938;2023-01-15T20:41:34;5.00;99.90
20459;DHT22;10388;52.314;7.938;2023-01-15T20:44:31;5.00;99.90
20459;DHT22;10388;52.314;7.938;2023-01-15T20:47:25;5.10;99.90
20459;DHT22;10388;52.314;7.938;2023-01-15T20:50:16;5.00;99.90
20459;DHT22;10388;52.314;7.938;2023-01-15T20:52:49;5.10;99.90
20459;DHT22;10388;52.314;7.938;2023-01-15T20:55:21;5.10;99.90
20459;DHT22;10388;52.314;7.938;2023-01-15T20:58:00;5.10;99.90
20459;DHT22;10388;52.314;7.938;2023-01-15T21:00:31;5.10;99.90
20459;DHT22;10388;52.314;7.938;2023-01-15T21:03:03;5.10;99.90
20459;DHT22;10388;52.314;7.938;2023-01-15T21:05:35;5.20;99.90
20459;DHT22;10388;52.314;7.938;2023-01-15T21:08:05;5.10;99.90
20459;DHT22;10388;52.314;7.938;2023-01-15T21:10:36;5.10;99.90
20459;DHT22;10388;52.314;7.938;2023-01-15T21:13:07;5.20;99.90
20459;DHT22;10388;52.314;7.938;2023-01-15T21:15:38;5.10;99.90
20459;DHT22;10388;52.314;7.938;2023-01-15T21:18:08;5.10;99.90
20459;DHT22;10388;52.314;7.938;2023-01-15T21:20:39;5.10;99.90